createdAt,value
2023-03-23T15:57:59.675Z,13.63
2023-03-23T16:00:29.732Z,13.65
2023-03-23T16:03:02.236Z,13.28
2023-03-23T16:05:30.830Z,13.54
2023-03-23T16:07:59.614Z,13.53
2023-03-23T16:10:29.517Z,12.78
2023-03-23T16:12:59.113Z,13.45
2023-03-23T16:15:27.381Z,13.53
2023-03-23T16:17:55.915Z,13.50
2023-03-23T16:20:25.670Z,13.42
2023-03-23T16:22:54.794Z,13.59
2023-03-23T16:25:23.228Z,13.45
2023-03-23T16:27:52.802Z,13.48
2023-03-23T16:30:25.716Z,13.44
2023-03-23T16:32:56.255Z,13.52
2023-03-23T16:35:26.541Z,13.48
2023-03-23T16:38:08.245Z,13.45
2023-03-23T16:40:37.824Z,13.33
2023-03-23T16:43:08.298Z,13.35
2023-03-23T16:45:43.719Z,13.28
2023-03-23T16:48:13.580Z,13.28
2023-03-23T16:50:42.473Z,13.23
2023-03-23T16:53:11.819Z,13.31
2023-03-23T16:55:41.072Z,13.25
2023-03-23T16:58:16.832Z,13.33
2023-03-23T17:00:50.815Z,13.29
2023-03-23T17:03:21.074Z,13.29
2023-03-23T17:05:51.787Z,13.30
2023-03-23T17:08:21.473Z,12.50
2023-03-23T17:10:50.537Z,13.17
2023-03-23T17:13:18.998Z,13.17
2023-03-23T17:15:48.862Z,13.08
2023-03-23T17:18:17.423Z,13.07
2023-03-23T17:20:45.721Z,13.10
2023-03-23T17:23:14.531Z,12.90
2023-03-23T17:25:44.762Z,13.04
2023-03-23T17:28:13.332Z,12.94
2023-03-23T17:30:43.208Z,12.98
2023-03-23T17:33:14.085Z,12.15
2023-03-23T17:35:44.377Z,12.86
2023-03-23T17:38:12.991Z,12.84
2023-03-23T17:40:41.181Z,12.50
2023-03-23T17:43:09.429Z,12.54
2023-03-23T17:45:37.644Z,12.54
2023-03-23T17:48:07.842Z,12.43
2023-03-23T17:50:37.985Z,11.31
2023-03-23T17:53:06.327Z,12.21
2023-03-23T17:55:34.585Z,12.21
2023-03-23T17:58:02.904Z,12.31
2023-03-23T18:00:31.170Z,12.32
2023-03-23T18:02:59.441Z,12.43
2023-03-23T18:05:28.228Z,12.44
2023-03-23T18:07:58.245Z,12.44
2023-03-23T18:10:31.754Z,12.60
2023-03-23T18:13:07.137Z,12.62
2023-03-23T18:15:48.464Z,12.62
2023-03-23T18:18:23.681Z,12.63
2023-03-23T18:20:56.781Z,12.58
2023-03-23T18:23:30.258Z,11.77
2023-03-23T18:26:01.050Z,12.65
2023-03-23T18:28:30.439Z,12.55
2023-03-23T18:31:04.638Z,12.62
2023-03-23T18:33:38.898Z,12.47
2023-03-23T18:36:11.426Z,12.58
2023-03-23T18:38:41.738Z,12.51
2023-03-23T18:41:11.909Z,12.57
2023-03-23T18:43:42.097Z,12.53
2023-03-23T18:46:11.123Z,12.60
2023-03-23T18:48:40.145Z,12.50
2023-03-23T18:51:09.216Z,12.59
2023-03-23T18:53:38.240Z,12.47
2023-03-23T18:56:12.292Z,12.60
2023-03-23T18:58:40.670Z,12.51
2023-03-23T19:01:13.250Z,12.55
2023-03-23T19:03:45.059Z,12.54
2023-03-23T19:06:22.472Z,12.53
2023-03-23T19:08:53.498Z,12.37
2023-03-23T19:11:27.088Z,12.47
2023-03-23T19:14:03.638Z,12.48
2023-03-23T19:16:39.566Z,12.24
2023-03-23T19:19:14.257Z,12.47
2023-03-23T19:21:49.315Z,12.54
2023-03-23T19:24:27.711Z,12.43
2023-03-23T19:27:05.627Z,12.37
2023-03-23T19:29:39.935Z,12.38
2023-03-23T19:32:10.509Z,12.41
2023-03-23T19:34:39.948Z,12.35
2023-03-23T19:37:11.263Z,12.27
2023-03-23T19:39:42.962Z,12.12
2023-03-23T19:42:18.965Z,12.04
2023-03-23T19:44:53.966Z,12.48
2023-03-23T19:47:24.042Z,12.05
2023-03-23T19:49:53.139Z,12.36
2023-03-23T19:52:24.244Z,12.46
2023-03-23T19:54:52.653Z,12.53
2023-03-23T19:57:25.251Z,12.54
2023-03-23T19:59:54.894Z,12.57
2023-03-23T20:02:24.956Z,12.50
2023-03-23T20:04:55.155Z,12.64
2023-03-23T20:07:26.577Z,12.51
2023-03-23T20:09:55.222Z,11.62
2023-03-23T20:12:24.919Z,12.48
2023-03-23T20:14:53.173Z,12.45
2023-03-23T20:17:21.593Z,12.47
2023-03-23T20:19:49.833Z,12.33
2023-03-23T20:22:18.059Z,12.37
2023-03-23T20:24:47.280Z,12.37
2023-03-23T20:27:16.156Z,12.34
2023-03-23T20:29:45.997Z,12.33
2023-03-23T20:32:14.210Z,12.40
2023-03-23T20:34:44.105Z,12.38
2023-03-23T20:37:16.010Z,12.41
2023-03-23T20:39:46.464Z,12.39
2023-03-23T20:42:14.827Z,12.45
2023-03-23T20:44:43.110Z,12.51
2023-03-23T20:47:12.643Z,12.58
2023-03-23T20:49:41.921Z,11.66
2023-03-23T20:52:11.937Z,12.48
2023-03-23T20:54:40.857Z,12.56
2023-03-23T20:57:09.252Z,12.62
2023-03-23T20:59:37.718Z,12.61
2023-03-23T21:02:06.234Z,12.66
2023-03-23T21:04:37.347Z,12.64
2023-03-23T21:07:05.809Z,12.74
2023-03-23T21:09:34.092Z,12.47
2023-03-23T21:12:06.204Z,12.73
2023-03-23T21:14:34.834Z,12.64
2023-03-23T21:17:03.616Z,12.67
2023-03-23T21:19:32.660Z,12.68
2023-03-23T21:22:02.626Z,11.82
2023-03-23T21:24:32.579Z,12.67
2023-03-23T21:27:03.499Z,12.69
2023-03-23T21:29:32.338Z,12.53
2023-03-23T21:32:08.397Z,12.61
2023-03-23T21:34:37.818Z,12.63
2023-03-23T21:37:07.806Z,12.48
2023-03-23T21:39:36.134Z,12.27
2023-03-23T21:42:06.924Z,11.98
2023-03-23T21:44:36.239Z,12.36
2023-03-23T21:47:04.735Z,12.30
2023-03-23T21:49:33.131Z,12.44
2023-03-23T21:52:02.092Z,11.82
2023-03-23T21:54:34.347Z,12.19
2023-03-23T21:57:02.709Z,12.26
2023-03-23T21:59:31.145Z,11.99
2023-03-23T22:02:01.911Z,12.19
2023-03-23T22:04:30.336Z,12.10
2023-03-23T22:06:58.667Z,12.08
2023-03-23T22:09:28.134Z,12.08
2023-03-23T22:11:58.229Z,11.81
2023-03-23T22:14:26.539Z,11.86
2023-03-23T22:16:54.922Z,11.63
2023-03-23T22:19:29.837Z,12.02
2023-03-23T22:21:58.099Z,11.95
2023-03-23T22:24:27.195Z,11.89
2023-03-23T22:26:56.958Z,11.85
2023-03-23T22:29:25.238Z,11.91
2023-03-23T22:31:53.516Z,11.85
2023-03-23T22:34:21.942Z,11.82
2023-03-23T22:36:50.219Z,11.66
2023-03-23T22:39:18.473Z,11.69
2023-03-23T22:41:47.346Z,11.51
2023-03-23T22:44:19.466Z,11.40
2023-03-23T22:46:47.984Z,11.43
2023-03-23T22:49:16.709Z,11.50
2023-03-23T22:51:45.093Z,11.42
2023-03-23T22:54:13.369Z,11.40
2023-03-23T22:56:41.745Z,11.30
2023-03-23T22:59:11.854Z,11.33
2023-03-23T23:01:42.752Z,11.26
2023-03-23T23:04:11.101Z,11.11
2023-03-23T23:06:45.966Z,11.07
2023-03-23T23:09:14.277Z,11.18
2023-03-23T23:11:42.515Z,11.01
2023-03-23T23:14:11.132Z,10.95
2023-03-23T23:16:39.930Z,11.00
2023-03-23T23:19:09.549Z,10.51
2023-03-23T23:21:37.836Z,10.81
2023-03-23T23:24:07.468Z,10.80
2023-03-23T23:26:36.605Z,10.67
2023-03-23T23:29:05.516Z,10.63
2023-03-23T23:31:34.643Z,10.64
2023-03-23T23:34:04.519Z,10.52
2023-03-23T23:36:34.317Z,10.56
2023-03-23T23:39:05.853Z,10.44
2023-03-23T23:41:34.620Z,10.56
2023-03-23T23:44:03.287Z,10.39
2023-03-23T23:46:32.584Z,10.33
2023-03-23T23:49:02.043Z,10.61
2023-03-23T23:51:33.703Z,10.38
2023-03-23T23:54:04.630Z,10.69
2023-03-23T23:56:32.993Z,10.75
2023-03-23T23:59:01.267Z,10.81
